sensor_id;sensor_type;location;lat;lon;timestamp;pressure;altitude;pressure_sealevel;temperature;humidity
20825;BME280;10573;50.936;6.978;2023-04-19T00:00:13;102147.91;;;14.71;52.16
20825;BME280;10573;50.936;6.978;2023-04-19T00:02:38;102139.31;;;14.95;51.62
20825;BME280;10573;50.936;6.978;2023-04-19T00:05:06;102136.94;;;14.81;51.68
20825;BME280;10573;50.936;6.978;2023-04-19T00:07:31;102137.13;;;14.89;51.58
20825;BME280;10573;50.936;6.978;2023-04-19T00:09:56;102134.97;;;14.92;51.73
20825;BME280;10573;50.936;6.978;2023-04-19T00:12:22;102138.06;;;14.68;52.05
20825;BME280;10573;50.936;6.978;2023-04-19T00:14:47;102132.03;;;14.74;52.23
20825;BME280;10573;50.936;6.978;2023-04-19T00:17:12;102135.03;;;14.71;52.28
20825;BME280;10573;50.936;6.978;2023-04-19T00:19:38;102129.00;;;14.77;51.89
20825;BME280;10573;50.936;6.978;2023-04-19T00:22:03;102127.94;;;14.69;52.19
20825;BME280;10573;50.936;6.978;2023-04-19T00:24:29;102133.88;;;14.74;52.25
20825;BME280;10573;50.936;6.978;2023-04-19T00:26:54;102125.38;;;14.77;52.16
20825;BME280;10573;50.936;6.978;2023-04-19T00:29:21;102131.63;;;14.58;52.81
20825;BME280;10573;50.936;6.978;2023-04-19T00:31:46;102136.09;;;14.28;53.36
20825;BME280;10573;50.936;6.978;2023-04-19T00:34:12;102139.34;;;14.43;53.25
20825;BME280;10573;50.936;6.978;2023-04-19T00:36:37;102132.16;;;14.73;52.54
20825;BME280;10573;50.936;6.978;2023-04-19T00:39:02;102116.16;;;14.88;52.42
20825;BME280;10573;50.936;6.978;2023-04-19T00:41:27;102121.66;;;14.88;52.48
20825;BME280;10573;50.936;6.978;2023-04-19T00:43:53;102125.50;;;14.44;53.12
20825;BME280;10573;50.936;6.978;2023-04-19T00:46:18;102128.00;;;14.79;52.52
20825;BME280;10573;50.936;6.978;2023-04-19T00:48:44;102118.84;;;14.68;52.76
20825;BME280;10573;50.936;6.978;2023-04-19T00:51:09;102116.78;;;14.60;52.64
20825;BME280;10573;50.936;6.978;2023-04-19T00:53:36;102119.50;;;14.60;53.06
20825;BME280;10573;50.936;6.978;2023-04-19T00:56:02;102118.88;;;14.47;53.50
20825;BME280;10573;50.936;6.978;2023-04-19T00:58:28;102112.63;;;14.66;52.96
20825;BME280;10573;50.936;6.978;2023-04-19T01:00:55;102120.00;;;14.44;53.48
20825;BME280;10573;50.936;6.978;2023-04-19T01:03:22;102114.97;;;14.40;53.72
20825;BME280;10573;50.936;6.978;2023-04-19T01:05:47;102103.94;;;14.61;53.52
20825;BME280;10573;50.936;6.978;2023-04-19T01:08:13;102100.16;;;14.62;53.30
20825;BME280;10573;50.936;6.978;2023-04-19T01:10:38;102107.75;;;14.49;53.61
20825;BME280;10573;50.936;6.978;2023-04-19T01:13:03;102103.00;;;14.72;53.26
20825;BME280;10573;50.936;6.978;2023-04-19T01:15:29;102110.50;;;14.49;53.82
20825;BME280;10573;50.936;6.978;2023-04-19T01:17:55;102108.34;;;14.73;53.32
20825;BME280;10573;50.936;6.978;2023-04-19T01:20:20;102098.53;;;14.81;53.29
20825;BME280;10573;50.936;6.978;2023-04-19T01:22:46;102101.44;;;14.79;53.22
20825;BME280;10573;50.936;6.978;2023-04-19T01:25:11;102098.47;;;14.61;53.69
20825;BME280;10573;50.936;6.978;2023-04-19T01:27:36;102095.78;;;14.50;54.14
20825;BME280;10573;50.936;6.978;2023-04-19T01:30:01;102096.63;;;14.40;54.36
20825;BME280;10573;50.936;6.978;2023-04-19T01:32:27;102095.97;;;14.58;53.98
20825;BME280;10573;50.936;6.978;2023-04-19T01:34:52;102099.00;;;14.55;54.05
20825;BME280;10573;50.936;6.978;2023-04-19T01:37:17;102091.56;;;14.36;54.77
20825;BME280;10573;50.936;6.978;2023-04-19T01:39:43;102089.03;;;14.23;55.03
20825;BME280;10573;50.936;6.978;2023-04-19T01:42:08;102086.44;;;14.00;55.51
20825;BME280;10573;50.936;6.978;2023-04-19T01:44:33;102091.13;;;14.09;55.57
20825;BME280;10573;50.936;6.978;2023-04-19T01:46:58;102086.09;;;14.15;55.20
20825;BME280;10573;50.936;6.978;2023-04-19T01:49:24;102085.47;;;14.01;55.87
20825;BME280;10573;50.936;6.978;2023-04-19T01:51:49;102088.03;;;14.24;55.46
20825;BME280;10573;50.936;6.978;2023-04-19T01:54:14;102082.91;;;14.09;55.77
20825;BME280;10573;50.936;6.978;2023-04-19T01:56:40;102087.81;;;13.85;56.45
20825;BME280;10573;50.936;6.978;2023-04-19T01:59:05;102078.66;;;13.74;56.63
20825;BME280;10573;50.936;6.978;2023-04-19T02:01:30;102080.25;;;13.98;56.49
20825;BME280;10573;50.936;6.978;2023-04-19T02:03:56;102081.84;;;14.01;56.22
20825;BME280;10573;50.936;6.978;2023-04-19T02:06:21;102081.63;;;13.92;56.54
20825;BME280;10573;50.936;6.978;2023-04-19T02:08:46;102075.84;;;13.86;56.63
20825;BME280;10573;50.936;6.978;2023-04-19T02:11:12;102075.84;;;13.86;56.63
20825;BME280;10573;50.936;6.978;2023-04-19T02:13:41;102075.72;;;13.66;56.96
20825;BME280;10573;50.936;6.978;2023-04-19T02:16:06;102076.84;;;13.64;57.31
20825;BME280;10573;50.936;6.978;2023-04-19T02:18:32;102077.97;;;13.61;57.52
20825;BME280;10573;50.936;6.978;2023-04-19T02:21:00;102068.16;;;13.80;57.17
20825;BME280;10573;50.936;6.978;2023-04-19T02:23:25;102068.16;;;13.80;57.07
20825;BME280;10573;50.936;6.978;2023-04-19T02:25:51;102077.66;;;13.97;56.68
20825;BME280;10573;50.936;6.978;2023-04-19T02:28:16;102070.50;;;13.84;57.06
20825;BME280;10573;50.936;6.978;2023-04-19T02:30:41;102075.03;;;13.95;56.89
20825;BME280;10573;50.936;6.978;2023-04-19T02:33:07;102075.63;;;13.77;57.13
20825;BME280;10573;50.936;6.978;2023-04-19T02:35:32;102076.47;;;13.99;56.99
20825;BME280;10573;50.936;6.978;2023-04-19T02:37:58;102075.09;;;14.05;56.81
20825;BME280;10573;50.936;6.978;2023-04-19T02:40:24;102075.91;;;13.96;56.83
20825;BME280;10573;50.936;6.978;2023-04-19T02:42:50;102075.00;;;14.16;56.38
20825;BME280;10573;50.936;6.978;2023-04-19T02:45:16;102077.78;;;14.26;56.18
20825;BME280;10573;50.936;6.978;2023-04-19T02:47:41;102075.19;;;14.24;56.34
20825;BME280;10573;50.936;6.978;2023-04-19T02:50:06;102069.78;;;14.34;56.10
20825;BME280;10573;50.936;6.978;2023-04-19T02:52:32;102072.94;;;14.39;55.96
20825;BME280;10573;50.936;6.978;2023-04-19T02:54:57;102069.34;;;13.87;57.07
20825;BME280;10573;50.936;6.978;2023-04-19T02:57:22;102076.16;;;13.50;58.21
20825;BME280;10573;50.936;6.978;2023-04-19T02:59:48;102065.91;;;13.85;57.27
20825;BME280;10573;50.936;6.978;2023-04-19T03:02:13;102071.66;;;13.61;57.83
20825;BME280;10573;50.936;6.978;2023-04-19T03:04:38;102067.75;;;13.42;58.64
20825;BME280;10573;50.936;6.978;2023-04-19T03:07:05;102064.66;;;13.24;59.28
20825;BME280;10573;50.936;6.978;2023-04-19T03:09:30;102063.50;;;13.70;58.02
20825;BME280;10573;50.936;6.978;2023-04-19T03:11:55;102061.13;;;13.12;59.33
20825;BME280;10573;50.936;6.978;2023-04-19T03:14:20;102067.72;;;13.09;59.67
20825;BME280;10573;50.936;6.978;2023-04-19T03:16:46;102062.88;;;13.34;59.11
20825;BME280;10573;50.936;6.978;2023-04-19T03:19:11;102057.25;;;13.15;59.41
20825;BME280;10573;50.936;6.978;2023-04-19T03:21:36;102058.34;;;13.23;59.49
20825;BME280;10573;50.936;6.978;2023-04-19T03:24:02;102053.47;;;13.27;59.03
20825;BME280;10573;50.936;6.978;2023-04-19T03:26:27;102052.25;;;13.20;59.71
20825;BME280;10573;50.936;6.978;2023-04-19T03:28:52;102056.22;;;13.59;58.59
20825;BME280;10573;50.936;6.978;2023-04-19T03:31:18;102057.06;;;13.27;59.34
20825;BME280;10573;50.936;6.978;2023-04-19T03:33:43;102055.03;;;13.08;60.01
20825;BME280;10573;50.936;6.978;2023-04-19T03:36:08;102052.19;;;13.42;59.39
20825;BME280;10573;50.936;6.978;2023-04-19T03:38:34;102046.47;;;13.46;59.33
20825;BME280;10573;50.936;6.978;2023-04-19T03:41:00;102048.00;;;13.27;59.90
20825;BME280;10573;50.936;6.978;2023-04-19T03:43:26;102059.00;;;13.69;59.00
20825;BME280;10573;50.936;6.978;2023-04-19T03:45:51;102052.50;;;13.49;59.59
20825;BME280;10573;50.936;6.978;2023-04-19T03:48:16;102040.03;;;13.24;60.35
20825;BME280;10573;50.936;6.978;2023-04-19T03:50:41;102044.63;;;13.56;59.82
20825;BME280;10573;50.936;6.978;2023-04-19T03:53:07;102044.31;;;13.70;59.67
20825;BME280;10573;50.936;6.978;2023-04-19T03:55:33;102040.78;;;13.58;60.13
20825;BME280;10573;50.936;6.978;2023-04-19T03:57:58;102044.41;;;13.59;60.27
20825;BME280;10573;50.936;6.978;2023-04-19T04:00:24;102038.81;;;13.49;60.19
20825;BME280;10573;50.936;6.978;2023-04-19T04:02:50;102049.47;;;13.31;60.94
20825;BME280;10573;50.936;6.978;2023-04-19T04:05:15;102048.78;;;13.18;61.22
20825;BME280;10573;50.936;6.978;2023-04-19T04:07:40;102047.31;;;13.14;61.92
20825;BME280;10573;50.936;6.978;2023-04-19T04:10:06;102055.94;;;13.41;60.94
20825;BME280;10573;50.936;6.978;2023-04-19T04:12:31;102048.25;;;13.56;60.59
20825;BME280;10573;50.936;6.978;2023-04-19T04:14:57;102043.88;;;13.33;61.01
20825;BME280;10573;50.936;6.978;2023-04-19T04:17:22;102052.72;;;13.36;61.04
20825;BME280;10573;50.936;6.978;2023-04-19T04:19:48;102048.59;;;13.31;61.43
20825;BME280;10573;50.936;6.978;2023-04-19T04:22:13;102047.59;;;13.32;61.22
20825;BME280;10573;50.936;6.978;2023-04-19T04:24:39;102045.00;;;13.41;61.25
20825;BME280;10573;50.936;6.978;2023-04-19T04:27:06;102045.84;;;13.42;60.91
20825;BME280;10573;50.936;6.978;2023-04-19T04:29:34;102047.34;;;13.35;61.26
20825;BME280;10573;50.936;6.978;2023-04-19T04:31:59;102046.47;;;13.46;61.08
20825;BME280;10573;50.936;6.978;2023-04-19T04:34:25;102050.25;;;13.54;60.44
20825;BME280;10573;50.936;6.978;2023-04-19T04:36:50;102049.34;;;13.33;61.00
20825;BME280;10573;50.936;6.978;2023-04-19T04:39:15;102048.84;;;13.60;60.31
20825;BME280;10573;50.936;6.978;2023-04-19T04:41:41;102049.72;;;13.39;60.82
20825;BME280;10573;50.936;6.978;2023-04-19T04:44:06;102050.09;;;13.35;60.69
20825;BME280;10573;50.936;6.978;2023-04-19T04:46:33;102037.69;;;13.52;60.52
20825;BME280;10573;50.936;6.978;2023-04-19T04:48:58;102038.84;;;13.70;60.04
20825;BME280;10573;50.936;6.978;2023-04-19T04:51:23;102050.06;;;13.46;60.34
20825;BME280;10573;50.936;6.978;2023-04-19T04:53:50;102048.00;;;13.27;60.56
20825;BME280;10573;50.936;6.978;2023-04-19T04:56:15;102057.50;;;13.12;60.85
20825;BME280;10573;50.936;6.978;2023-04-19T04:58:40;102056.25;;;13.48;60.19
20825;BME280;10573;50.936;6.978;2023-04-19T05:01:06;102050.88;;;13.58;60.09
20825;BME280;10573;50.936;6.978;2023-04-19T05:03:31;102051.91;;;13.67;59.85
20825;BME280;10573;50.936;6.978;2023-04-19T05:05:56;102046.69;;;13.42;59.75
20825;BME280;10573;50.936;6.978;2023-04-19T05:08:21;102047.34;;;13.67;59.66
20825;BME280;10573;50.936;6.978;2023-04-19T05:10:47;102046.31;;;13.68;59.30
20825;BME280;10573;50.936;6.978;2023-04-19T05:13:12;102046.31;;;13.68;59.26
20825;BME280;10573;50.936;6.978;2023-04-19T05:15:37;102045.59;;;13.66;59.51
20825;BME280;10573;50.936;6.978;2023-04-19T05:18:03;102050.53;;;13.19;60.29
20825;BME280;10573;50.936;6.978;2023-04-19T05:20:28;102047.88;;;13.17;60.37
20825;BME280;10573;50.936;6.978;2023-04-19T05:22:57;102049.31;;;13.44;59.71
20825;BME280;10573;50.936;6.978;2023-04-19T05:25:22;102048.16;;;13.47;59.71
20825;BME280;10573;50.936;6.978;2023-04-19T05:27:48;102044.78;;;13.54;59.22
20825;BME280;10573;50.936;6.978;2023-04-19T05:30:13;102038.91;;;13.38;59.71
20825;BME280;10573;50.936;6.978;2023-04-19T05:32:38;102049.72;;;13.61;58.98
20825;BME280;10573;50.936;6.978;2023-04-19T05:35:04;102037.31;;;13.56;58.82
20825;BME280;10573;50.936;6.978;2023-04-19T05:37:29;102039.13;;;13.67;58.63
20825;BME280;10573;50.936;6.978;2023-04-19T05:39:55;102033.22;;;13.72;58.54
20825;BME280;10573;50.936;6.978;2023-04-19T05:42:21;102028.94;;;13.37;58.64
20825;BME280;10573;50.936;6.978;2023-04-19T05:44:46;102027.75;;;13.51;58.29
20825;BME280;10573;50.936;6.978;2023-04-19T05:47:11;102034.69;;;13.22;59.20
20825;BME280;10573;50.936;6.978;2023-04-19T05:49:37;102028.00;;;13.48;58.62
20825;BME280;10573;50.936;6.978;2023-04-19T05:52:02;102038.00;;;13.37;58.48
20825;BME280;10573;50.936;6.978;2023-04-19T05:54:27;102037.28;;;13.24;58.94
20825;BME280;10573;50.936;6.978;2023-04-19T05:56:58;102031.03;;;13.45;58.28
20825;BME280;10573;50.936;6.978;2023-04-19T05:59:23;102040.59;;;13.71;58.29
20825;BME280;10573;50.936;6.978;2023-04-19T06:01:48;102038.84;;;13.70;57.64
20825;BME280;10573;50.936;6.978;2023-04-19T06:04:14;102038.84;;;13.70;57.45
20825;BME280;10573;50.936;6.978;2023-04-19T06:06:39;102040.28;;;13.32;57.94
20825;BME280;10573;50.936;6.978;2023-04-19T06:09:04;102040.44;;;13.52;57.72
20825;BME280;10573;50.936;6.978;2023-04-19T06:11:31;102041.31;;;13.73;57.31
20825;BME280;10573;50.936;6.978;2023-04-19T06:13:56;102042.44;;;13.92;56.68
20825;BME280;10573;50.936;6.978;2023-04-19T06:16:21;102037.31;;;13.56;56.80
20825;BME280;10573;50.936;6.978;2023-04-19T06:18:47;102037.66;;;13.63;56.29
20825;BME280;10573;50.936;6.978;2023-04-19T06:21:12;102037.09;;;13.48;57.00
20825;BME280;10573;50.936;6.978;2023-04-19T06:23:37;102040.09;;;13.13;57.74
20825;BME280;10573;50.936;6.978;2023-04-19T06:26:02;102033.91;;;13.32;57.55
20825;BME280;10573;50.936;6.978;2023-04-19T06:28:28;102034.63;;;13.13;57.04
20825;BME280;10573;50.936;6.978;2023-04-19T06:30:53;102037.47;;;12.67;58.04
20825;BME280;10573;50.936;6.978;2023-04-19T06:33:19;102037.84;;;13.18;56.79
20825;BME280;10573;50.936;6.978;2023-04-19T06:35:44;102026.06;;;13.38;56.53
20825;BME280;10573;50.936;6.978;2023-04-19T06:38:10;102029.31;;;13.32;55.84
20825;BME280;10573;50.936;6.978;2023-04-19T06:40:35;102033.31;;;13.61;55.66
20825;BME280;10573;50.936;6.978;2023-04-19T06:43:00;102031.38;;;13.72;55.57
20825;BME280;10573;50.936;6.978;2023-04-19T06:45:26;102035.66;;;13.00;56.47
20825;BME280;10573;50.936;6.978;2023-04-19T06:47:51;102035.91;;;13.83;55.27
20825;BME280;10573;50.936;6.978;2023-04-19T06:50:16;102031.91;;;13.66;54.78
20825;BME280;10573;50.936;6.978;2023-04-19T06:52:42;102029.94;;;13.36;55.95
20825;BME280;10573;50.936;6.978;2023-04-19T06:55:08;102030.44;;;13.62;54.56
20825;BME280;10573;50.936;6.978;2023-04-19T06:57:33;102027.69;;;13.83;54.67
20825;BME280;10573;50.936;6.978;2023-04-19T06:59:58;102033.22;;;12.86;55.24
20825;BME280;10573;50.936;6.978;2023-04-19T07:02:24;102023.72;;;13.01;55.29
20825;BME280;10573;50.936;6.978;2023-04-19T07:04:49;102027.53;;;13.42;54.43
20825;BME280;10573;50.936;6.978;2023-04-19T07:07:15;102020.47;;;13.82;53.14
20825;BME280;10573;50.936;6.978;2023-04-19T07:09:40;102021.97;;;13.33;53.72
20825;BME280;10573;50.936;6.978;2023-04-19T07:12:06;102031.16;;;13.64;53.38
20825;BME280;10573;50.936;6.978;2023-04-19T07:14:31;102018.72;;;13.60;52.90
20825;BME280;10573;50.936;6.978;2023-04-19T07:16:56;102022.72;;;13.56;52.59
20825;BME280;10573;50.936;6.978;2023-04-19T07:19:22;102004.22;;;13.27;53.06
20825;BME280;10573;50.936;6.978;2023-04-19T07:21:47;102014.97;;;13.40;52.93
20825;BME280;10573;50.936;6.978;2023-04-19T07:24:12;102001.56;;;13.58;52.01
20825;BME280;10573;50.936;6.978;2023-04-19T07:26:38;101997.59;;;13.93;51.51
20825;BME280;10573;50.936;6.978;2023-04-19T07:29:03;101996.16;;;14.39;50.43
20825;BME280;10573;50.936;6.978;2023-04-19T07:31:28;101995.03;;;14.42;49.59
20825;BME280;10573;50.936;6.978;2023-04-19T07:33:54;101991.53;;;14.81;48.70
20825;BME280;10573;50.936;6.978;2023-04-19T07:36:19;101987.50;;;15.34;47.76
20825;BME280;10573;50.936;6.978;2023-04-19T07:38:45;101982.69;;;15.55;47.02
20825;BME280;10573;50.936;6.978;2023-04-19T07:41:10;101986.47;;;15.25;46.86
20825;BME280;10573;50.936;6.978;2023-04-19T07:43:36;101988.44;;;15.82;46.52
20825;BME280;10573;50.936;6.978;2023-04-19T07:46:01;101981.13;;;16.00;46.08
20825;BME280;10573;50.936;6.978;2023-04-19T07:48:32;101981.50;;;15.87;45.47
20825;BME280;10573;50.936;6.978;2023-04-19T07:51:06;101993.28;;;14.72;47.56
20825;BME280;10573;50.936;6.978;2023-04-19T07:53:31;102001.44;;;14.62;48.07
20825;BME280;10573;50.936;6.978;2023-04-19T07:55:57;101992.50;;;14.60;47.45
20825;BME280;10573;50.936;6.978;2023-04-19T07:58:22;101990.53;;;14.82;46.80
20825;BME280;10573;50.936;6.978;2023-04-19T08:00:47;101990.53;;;15.01;46.33
20825;BME280;10573;50.936;6.978;2023-04-19T08:03:12;101987.34;;;15.16;46.47
20825;BME280;10573;50.936;6.978;2023-04-19T08:05:38;101991.97;;;14.76;46.73
20825;BME280;10573;50.936;6.978;2023-04-19T08:08:03;101984.19;;;14.81;46.86
20825;BME280;10573;50.936;6.978;2023-04-19T08:10:29;101979.19;;;15.73;44.69
20825;BME280;10573;50.936;6.978;2023-04-19T08:12:54;101983.56;;;15.56;44.55
20825;BME280;10573;50.936;6.978;2023-04-19T08:15:20;101977.81;;;15.20;44.74
20825;BME280;10573;50.936;6.978;2023-04-19T08:17:45;101974.91;;;16.36;43.35
20825;BME280;10573;50.936;6.978;2023-04-19T08:20:10;101965.91;;;16.61;41.81
20825;BME280;10573;50.936;6.978;2023-04-19T08:22:36;101968.47;;;15.80;42.87
20825;BME280;10573;50.936;6.978;2023-04-19T08:25:03;101974.75;;;15.42;43.29
20825;BME280;10573;50.936;6.978;2023-04-19T08:27:29;101964.84;;;16.44;41.50
20825;BME280;10573;50.936;6.978;2023-04-19T08:29:54;101960.28;;;16.99;40.83
20825;BME280;10573;50.936;6.978;2023-04-19T08:32:19;101956.69;;;17.69;39.73
20825;BME280;10573;50.936;6.978;2023-04-19T08:34:45;101956.31;;;17.64;39.52
20825;BME280;10573;50.936;6.978;2023-04-19T08:37:10;101941.59;;;18.75;37.37
20825;BME280;10573;50.936;6.978;2023-04-19T08:39:35;101939.44;;;18.28;37.18
20825;BME280;10573;50.936;6.978;2023-04-19T08:42:07;101940.97;;;19.15;36.63
20825;BME280;10573;50.936;6.978;2023-04-19T08:44:33;101938.22;;;19.06;36.16
20825;BME280;10573;50.936;6.978;2023-04-19T08:46:59;101942.34;;;18.26;37.69
20825;BME280;10573;50.936;6.978;2023-04-19T08:49:26;101942.41;;;18.00;37.26
20825;BME280;10573;50.936;6.978;2023-04-19T08:51:51;101954.47;;;17.02;38.06
20825;BME280;10573;50.936;6.978;2023-04-19T08:54:17;101933.66;;;16.54;36.78
20825;BME280;10573;50.936;6.978;2023-04-19T08:56:42;101941.50;;;16.49;37.48
20825;BME280;10573;50.936;6.978;2023-04-19T08:59:07;101937.25;;;18.05;35.32
20825;BME280;10573;50.936;6.978;2023-04-19T09:01:33;101925.44;;;18.89;34.07
20825;BME280;10573;50.936;6.978;2023-04-19T09:03:58;101932.75;;;18.47;34.15
20825;BME280;10573;50.936;6.978;2023-04-19T09:06:23;101911.16;;;19.83;33.04
20825;BME280;10573;50.936;6.978;2023-04-19T09:08:50;101904.72;;;20.30;31.58
20825;BME280;10573;50.936;6.978;2023-04-19T09:11:21;101917.16;;;20.03;31.77
20825;BME280;10573;50.936;6.978;2023-04-19T09:14:06;101922.13;;;18.18;33.88
20825;BME280;10573;50.936;6.978;2023-04-19T09:16:32;101921.91;;;19.61;32.97
20825;BME280;10573;50.936;6.978;2023-04-19T09:18:57;101916.25;;;18.80;31.73
20825;BME280;10573;50.936;6.978;2023-04-19T09:21:27;101907.81;;;20.04;30.92
20825;BME280;10573;50.936;6.978;2023-04-19T09:23:53;101916.00;;;19.72;30.61
20825;BME280;10573;50.936;6.978;2023-04-19T09:26:18;101914.84;;;19.58;30.97
20825;BME280;10573;50.936;6.978;2023-04-19T09:28:59;101907.47;;;19.09;31.21
20825;BME280;10573;50.936;6.978;2023-04-19T09:31:28;101901.63;;;20.25;30.35
20825;BME280;10573;50.936;6.978;2023-04-19T09:33:54;101896.34;;;21.31;29.57
20825;BME280;10573;50.936;6.978;2023-04-19T09:38:51;101901.56;;;20.65;28.81
20825;BME280;10573;50.936;6.978;2023-04-19T09:41:16;101908.88;;;20.89;28.20
20825;BME280;10573;50.936;6.978;2023-04-19T09:43:42;101907.28;;;19.27;30.52
20825;BME280;10573;50.936;6.978;2023-04-19T09:46:08;101901.47;;;20.26;29.39
20825;BME280;10573;50.936;6.978;2023-04-19T09:48:33;101910.88;;;17.76;31.83
20825;BME280;10573;50.936;6.978;2023-04-19T09:50:59;101905.25;;;18.97;29.97
20825;BME280;10573;50.936;6.978;2023-04-19T09:53:26;101907.72;;;19.72;29.80
20825;BME280;10573;50.936;6.978;2023-04-19T09:55:51;101891.78;;;17.83;31.64
20825;BME280;10573;50.936;6.978;2023-04-19T09:58:17;101899.69;;;18.80;31.18
20825;BME280;10573;50.936;6.978;2023-04-19T10:00:44;101889.06;;;18.34;31.40
20825;BME280;10573;50.936;6.978;2023-04-19T10:03:11;101894.72;;;19.89;29.83
20825;BME280;10573;50.936;6.978;2023-04-19T10:05:37;101884.69;;;19.88;29.83
20825;BME280;10573;50.936;6.978;2023-04-19T10:08:03;101881.75;;;19.09;29.02
20825;BME280;10573;50.936;6.978;2023-04-19T10:10:31;101876.69;;;19.45;29.14
20825;BME280;10573;50.936;6.978;2023-04-19T10:12:56;101867.16;;;21.05;28.03
20825;BME280;10573;50.936;6.978;2023-04-19T10:15:23;101876.44;;;20.20;28.89
20825;BME280;10573;50.936;6.978;2023-04-19T10:17:49;101876.41;;;17.72;31.40
20825;BME280;10573;50.936;6.978;2023-04-19T10:23:00;101868.03;;;19.57;30.47
20825;BME280;10573;50.936;6.978;2023-04-19T10:25:27;101865.47;;;21.04;27.77
20825;BME280;10573;50.936;6.978;2023-04-19T10:27:53;101858.25;;;21.93;26.73
20825;BME280;10573;50.936;6.978;2023-04-19T10:30:22;101861.53;;;20.21;28.84
20825;BME280;10573;50.936;6.978;2023-04-19T10:32:54;101860.25;;;21.01;27.28
20825;BME280;10573;50.936;6.978;2023-04-19T10:35:21;101864.50;;;19.07;29.76
20825;BME280;10573;50.936;6.978;2023-04-19T10:43:14;101846.00;;;19.24;29.54
20825;BME280;10573;50.936;6.978;2023-04-19T10:45:41;101852.88;;;19.44;29.64
20825;BME280;10573;50.936;6.978;2023-04-19T10:48:07;101848.09;;;19.14;29.36
20825;BME280;10573;50.936;6.978;2023-04-19T10:50:58;101844.28;;;20.65;29.19
20825;BME280;10573;50.936;6.978;2023-04-19T10:56:07;101834.31;;;22.28;25.94
20825;BME280;10573;50.936;6.978;2023-04-19T10:58:52;101830.56;;;20.25;27.26
20825;BME280;10573;50.936;6.978;2023-04-19T11:04:03;101820.53;;;23.70;23.41
20825;BME280;10573;50.936;6.978;2023-04-19T11:06:29;101815.88;;;22.64;24.26
20825;BME280;10573;50.936;6.978;2023-04-19T11:08:54;101822.59;;;22.98;24.05
20825;BME280;10573;50.936;6.978;2023-04-19T11:11:20;101815.03;;;19.93;26.76
20825;BME280;10573;50.936;6.978;2023-04-19T11:13:46;101816.63;;;19.31;27.14
20825;BME280;10573;50.936;6.978;2023-04-19T11:16:12;101825.75;;;20.42;27.02
20825;BME280;10573;50.936;6.978;2023-04-19T11:18:37;101823.53;;;21.52;25.44
20825;BME280;10573;50.936;6.978;2023-04-19T11:21:02;101822.00;;;21.50;26.02
20825;BME280;10573;50.936;6.978;2023-04-19T11:23:28;101811.50;;;22.11;24.60
20825;BME280;10573;50.936;6.978;2023-04-19T11:25:54;101816.22;;;23.04;23.69
20825;BME280;10573;50.936;6.978;2023-04-19T11:28:19;101808.22;;;22.66;23.45
20825;BME280;10573;50.936;6.978;2023-04-19T11:30:45;101807.47;;;24.26;22.29
20825;BME280;10573;50.936;6.978;2023-04-19T11:33:11;101810.56;;;20.85;24.84
20825;BME280;10573;50.936;6.978;2023-04-19T11:35:36;101806.84;;;20.77;26.43
20825;BME280;10573;50.936;6.978;2023-04-19T11:38:02;101798.31;;;22.57;24.12
20825;BME280;10573;50.936;6.978;2023-04-19T11:40:29;101791.25;;;22.83;22.99
20825;BME280;10573;50.936;6.978;2023-04-19T11:42:58;101783.38;;;21.63;23.94
20825;BME280;10573;50.936;6.978;2023-04-19T11:45:25;101790.16;;;23.05;22.54
20825;BME280;10573;50.936;6.978;2023-04-19T11:47:53;101793.72;;;23.21;22.08
20825;BME280;10573;50.936;6.978;2023-04-19T11:55:34;101795.16;;;21.65;22.63
20825;BME280;10573;50.936;6.978;2023-04-19T11:58:00;101781.94;;;21.67;23.60
20825;BME280;10573;50.936;6.978;2023-04-19T12:00:26;101790.38;;;22.32;22.66
20825;BME280;10573;50.936;6.978;2023-04-19T12:02:53;101791.44;;;22.53;22.24
20825;BME280;10573;50.936;6.978;2023-04-19T12:05:18;101781.59;;;23.07;22.22
20825;BME280;10573;50.936;6.978;2023-04-19T12:08:03;101787.84;;;22.81;21.71
20825;BME280;10573;50.936;6.978;2023-04-19T12:10:30;101788.84;;;20.73;23.11
20825;BME280;10573;50.936;6.978;2023-04-19T12:12:56;101776.69;;;22.31;22.43
20825;BME280;10573;50.936;6.978;2023-04-19T12:15:21;101777.13;;;22.77;21.55
20825;BME280;10573;50.936;6.978;2023-04-19T12:17:58;101788.63;;;22.74;21.24
20825;BME280;10573;50.936;6.978;2023-04-19T12:20:36;101779.50;;;20.74;22.73
20825;BME280;10573;50.936;6.978;2023-04-19T12:23:02;101790.69;;;20.96;21.55
20825;BME280;10573;50.936;6.978;2023-04-19T12:25:32;101778.22;;;21.15;21.67
20825;BME280;10573;50.936;6.978;2023-04-19T12:28:02;101768.00;;;19.93;23.07
20825;BME280;10573;50.936;6.978;2023-04-19T12:30:28;101770.19;;;22.02;21.79
20825;BME280;10573;50.936;6.978;2023-04-19T12:32:53;101768.34;;;20.83;22.53
20825;BME280;10573;50.936;6.978;2023-04-19T12:35:23;101769.63;;;20.95;22.52
20825;BME280;10573;50.936;6.978;2023-04-19T12:37:51;101761.50;;;22.48;21.17
20825;BME280;10573;50.936;6.978;2023-04-19T12:40:16;101764.28;;;22.48;21.28
20825;BME280;10573;50.936;6.978;2023-04-19T12:42:42;101755.22;;;23.24;20.42
20825;BME280;10573;50.936;6.978;2023-04-19T12:45:08;101765.69;;;20.28;22.12
20825;BME280;10573;50.936;6.978;2023-04-19T12:47:33;101778.25;;;20.77;21.69
20825;BME280;10573;50.936;6.978;2023-04-19T12:49:59;101763.59;;;22.24;20.83
20825;BME280;10573;50.936;6.978;2023-04-19T12:52:25;101765.38;;;22.10;20.15
20825;BME280;10573;50.936;6.978;2023-04-19T12:54:51;101780.78;;;21.76;20.42
20825;BME280;10573;50.936;6.978;2023-04-19T12:57:16;101751.59;;;23.24;19.63
20825;BME280;10573;50.936;6.978;2023-04-19T12:59:42;101759.44;;;23.13;19.70
20825;BME280;10573;50.936;6.978;2023-04-19T13:02:07;101737.88;;;22.59;20.22
20825;BME280;10573;50.936;6.978;2023-04-19T13:04:32;101755.75;;;21.25;20.68